sensor_id;sensor_type;location;lat;lon;timestamp;P1;durP1;ratioP1;P2;durP2;ratioP2
69856;SDS011;57147;53.582;10.112;2024-02-21T00:02:08;31.48;;;16.30;;
69856;SDS011;57147;53.582;10.112;2024-02-21T00:07:08;26.52;;;15.18;;
69856;SDS011;57147;53.582;10.112;2024-02-21T00:12:08;27.73;;;15.32;;
69856;SDS011;57147;53.582;10.112;2024-02-21T00:17:08;27.95;;;16.05;;
69856;SDS011;57147;53.582;10.112;2024-02-21T00:22:09;23.80;;;13.70;;
69856;SDS011;57147;53.582;10.112;2024-02-21T00:27:09;32.00;;;16.27;;
69856;SDS011;57147;53.582;10.112;2024-02-21T00:32:09;26.85;;;16.00;;
69856;SDS011;57147;53.582;10.112;2024-02-21T00:37:10;29.50;;;16.87;;
69856;SDS011;57147;53.582;10.112;2024-02-21T00:42:10;26.60;;;15.88;;
69856;SDS011;57147;53.582;10.112;2024-02-21T00:47:10;32.50;;;16.77;;
69856;SDS011;57147;53.582;10.112;2024-02-21T00:52:10;28.77;;;15.65;;
69856;SDS011;57147;53.582;10.112;2024-02-21T00:57:11;34.90;;;16.70;;
69856;SDS011;57147;53.582;10.112;2024-02-21T01:02:11;30.48;;;15.25;;
69856;SDS011;57147;53.582;10.112;2024-02-21T01:07:11;32.17;;;16.50;;
69856;SDS011;57147;53.582;10.112;2024-02-21T01:12:12;29.25;;;17.45;;
69856;SDS011;57147;53.582;10.112;2024-02-21T01:17:12;36.05;;;19.10;;
69856;SDS011;57147;53.582;10.112;2024-02-21T01:22:12;32.20;;;17.40;;
69856;SDS011;57147;53.582;10.112;2024-02-21T01:27:12;30.10;;;17.58;;
69856;SDS011;57147;53.582;10.112;2024-02-21T01:32:13;29.27;;;17.65;;
69856;SDS011;57147;53.582;10.112;2024-02-21T01:37:13;33.57;;;18.30;;
69856;SDS011;57147;53.582;10.112;2024-02-21T01:42:13;28.13;;;17.13;;
69856;SDS011;57147;53.582;10.112;2024-02-21T01:47:14;31.30;;;19.70;;
69856;SDS011;57147;53.582;10.112;2024-02-21T01:52:14;32.58;;;17.92;;
69856;SDS011;57147;53.582;10.112;2024-02-21T01:57:16;31.27;;;18.38;;
69856;SDS011;57147;53.582;10.112;2024-02-21T02:02:16;33.97;;;19.57;;
69856;SDS011;57147;53.582;10.112;2024-02-21T02:07:18;32.00;;;18.38;;
69856;SDS011;57147;53.582;10.112;2024-02-21T02:12:18;31.20;;;17.77;;
69856;SDS011;57147;53.582;10.112;2024-02-21T02:17:19;31.07;;;19.43;;
69856;SDS011;57147;53.582;10.112;2024-02-21T02:22:21;31.48;;;18.48;;
69856;SDS011;57147;53.582;10.112;2024-02-21T02:27:22;31.45;;;19.13;;
69856;SDS011;57147;53.582;10.112;2024-02-21T02:32:23;28.33;;;18.07;;
69856;SDS011;57147;53.582;10.112;2024-02-21T02:37:23;27.58;;;16.23;;
69856;SDS011;57147;53.582;10.112;2024-02-21T02:42:23;31.02;;;19.17;;
69856;SDS011;57147;53.582;10.112;2024-02-21T02:47:23;32.17;;;19.15;;
69856;SDS011;57147;53.582;10.112;2024-02-21T02:52:24;33.40;;;18.70;;
69856;SDS011;57147;53.582;10.112;2024-02-21T02:57:24;34.53;;;19.45;;
69856;SDS011;57147;53.582;10.112;2024-02-21T03:02:24;37.13;;;18.90;;
69856;SDS011;57147;53.582;10.112;2024-02-21T03:07:25;35.67;;;18.67;;
69856;SDS011;57147;53.582;10.112;2024-02-21T03:12:25;33.38;;;19.17;;
69856;SDS011;57147;53.582;10.112;2024-02-21T03:17:25;35.50;;;19.00;;
69856;SDS011;57147;53.582;10.112;2024-02-21T03:22:26;38.55;;;20.02;;
69856;SDS011;57147;53.582;10.112;2024-02-21T03:27:26;34.40;;;20.40;;
69856;SDS011;57147;53.582;10.112;2024-02-21T03:32:27;32.78;;;20.10;;
69856;SDS011;57147;53.582;10.112;2024-02-21T03:37:27;30.30;;;18.60;;
69856;SDS011;57147;53.582;10.112;2024-02-21T03:42:27;38.97;;;19.58;;
69856;SDS011;57147;53.582;10.112;2024-02-21T03:47:28;30.47;;;19.00;;
69856;SDS011;57147;53.582;10.112;2024-02-21T03:52:28;38.08;;;22.38;;
69856;SDS011;57147;53.582;10.112;2024-02-21T03:57:28;37.10;;;20.42;;
69856;SDS011;57147;53.582;10.112;2024-02-21T04:02:28;30.25;;;19.00;;
69856;SDS011;57147;53.582;10.112;2024-02-21T04:07:29;32.60;;;21.52;;
69856;SDS011;57147;53.582;10.112;2024-02-21T04:12:29;29.73;;;18.98;;
69856;SDS011;57147;53.582;10.112;2024-02-21T04:17:29;33.15;;;19.00;;
69856;SDS011;57147;53.582;10.112;2024-02-21T04:22:29;33.30;;;20.05;;
69856;SDS011;57147;53.582;10.112;2024-02-21T04:27:29;29.30;;;17.45;;
69856;SDS011;57147;53.582;10.112;2024-02-21T04:32:30;30.92;;;19.77;;
69856;SDS011;57147;53.582;10.112;2024-02-21T04:37:30;27.77;;;17.23;;
69856;SDS011;57147;53.582;10.112;2024-02-21T04:42:30;27.17;;;17.20;;
69856;SDS011;57147;53.582;10.112;2024-02-21T04:47:31;28.77;;;18.13;;
69856;SDS011;57147;53.582;10.112;2024-02-21T04:52:31;22.25;;;15.55;;
69856;SDS011;57147;53.582;10.112;2024-02-21T04:57:31;24.35;;;15.55;;
69856;SDS011;57147;53.582;10.112;2024-02-21T05:02:32;22.00;;;15.73;;
69856;SDS011;57147;53.582;10.112;2024-02-21T05:07:32;22.63;;;16.15;;
69856;SDS011;57147;53.582;10.112;2024-02-21T05:12:32;21.20;;;15.13;;
69856;SDS011;57147;53.582;10.112;2024-02-21T05:17:32;23.73;;;14.10;;
69856;SDS011;57147;53.582;10.112;2024-02-21T05:22:32;22.63;;;15.75;;
69856;SDS011;57147;53.582;10.112;2024-02-21T05:27:33;20.67;;;14.57;;
69856;SDS011;57147;53.582;10.112;2024-02-21T05:32:33;19.65;;;13.85;;
69856;SDS011;57147;53.582;10.112;2024-02-21T05:37:33;19.50;;;12.73;;
69856;SDS011;57147;53.582;10.112;2024-02-21T05:42:34;17.50;;;12.63;;
69856;SDS011;57147;53.582;10.112;2024-02-21T05:47:34;15.50;;;11.73;;
69856;SDS011;57147;53.582;10.112;2024-02-21T05:52:34;14.00;;;8.25;;
69856;SDS011;57147;53.582;10.112;2024-02-21T05:57:35;12.40;;;9.73;;
69856;SDS011;57147;53.582;10.112;2024-02-21T06:02:35;13.77;;;9.77;;
69856;SDS011;57147;53.582;10.112;2024-02-21T06:07:35;13.87;;;10.50;;
69856;SDS011;57147;53.582;10.112;2024-02-21T06:12:36;12.70;;;8.52;;
69856;SDS011;57147;53.582;10.112;2024-02-21T06:17:36;12.80;;;8.03;;
69856;SDS011;57147;53.582;10.112;2024-02-21T06:22:36;11.88;;;7.85;;
69856;SDS011;57147;53.582;10.112;2024-02-21T06:27:36;9.10;;;6.95;;
69856;SDS011;57147;53.582;10.112;2024-02-21T06:32:37;5.32;;;4.32;;
69856;SDS011;57147;53.582;10.112;2024-02-21T06:37:37;9.63;;;7.65;;
69856;SDS011;57147;53.582;10.112;2024-02-21T06:42:37;5.85;;;5.15;;
69856;SDS011;57147;53.582;10.112;2024-02-21T06:47:37;8.32;;;6.68;;
69856;SDS011;57147;53.582;10.112;2024-02-21T06:52:38;6.90;;;6.20;;
69856;SDS011;57147;53.582;10.112;2024-02-21T06:57:38;6.25;;;4.95;;
69856;SDS011;57147;53.582;10.112;2024-02-21T07:02:38;6.03;;;5.43;;
69856;SDS011;57147;53.582;10.112;2024-02-21T07:07:38;6.50;;;5.80;;
69856;SDS011;57147;53.582;10.112;2024-02-21T07:12:38;6.53;;;5.82;;
69856;SDS011;57147;53.582;10.112;2024-02-21T07:17:39;4.90;;;3.80;;
69856;SDS011;57147;53.582;10.112;2024-02-21T07:22:39;7.97;;;6.35;;
69856;SDS011;57147;53.582;10.112;2024-02-21T07:27:39;6.47;;;5.13;;
69856;SDS011;57147;53.582;10.112;2024-02-21T07:32:39;8.75;;;7.85;;
69856;SDS011;57147;53.582;10.112;2024-02-21T07:37:40;7.38;;;6.10;;
69856;SDS011;57147;53.582;10.112;2024-02-21T07:42:40;9.30;;;6.97;;
69856;SDS011;57147;53.582;10.112;2024-02-21T07:47:41;8.80;;;7.85;;
69856;SDS011;57147;53.582;10.112;2024-02-21T07:52:41;8.90;;;7.60;;
69856;SDS011;57147;53.582;10.112;2024-02-21T07:57:41;7.35;;;6.63;;
69856;SDS011;57147;53.582;10.112;2024-02-21T08:02:41;6.95;;;6.25;;
69856;SDS011;57147;53.582;10.112;2024-02-21T08:07:42;6.80;;;6.20;;
69856;SDS011;57147;53.582;10.112;2024-02-21T08:12:42;7.40;;;6.70;;
69856;SDS011;57147;53.582;10.112;2024-02-21T08:17:42;5.32;;;4.15;;
69856;SDS011;57147;53.582;10.112;2024-02-21T08:22:42;6.23;;;4.43;;
69856;SDS011;57147;53.582;10.112;2024-02-21T08:27:43;11.30;;;5.63;;
69856;SDS011;57147;53.582;10.112;2024-02-21T08:32:43;10.85;;;5.03;;
69856;SDS011;57147;53.582;10.112;2024-02-21T08:37:43;12.45;;;5.28;;
69856;SDS011;57147;53.582;10.112;2024-02-21T08:42:44;10.85;;;5.30;;
69856;SDS011;57147;53.582;10.112;2024-02-21T08:47:44;10.45;;;4.90;;
69856;SDS011;57147;53.582;10.112;2024-02-21T08:52:44;9.93;;;4.85;;
69856;SDS011;57147;53.582;10.112;2024-02-21T08:57:44;10.43;;;3.90;;
69856;SDS011;57147;53.582;10.112;2024-02-21T09:02:45;11.90;;;4.40;;
69856;SDS011;57147;53.582;10.112;2024-02-21T09:07:45;9.50;;;4.30;;
69856;SDS011;57147;53.582;10.112;2024-02-21T09:12:45;9.45;;;4.53;;
69856;SDS011;57147;53.582;10.112;2024-02-21T09:17:45;10.60;;;4.07;;
69856;SDS011;57147;53.582;10.112;2024-02-21T09:22:45;9.15;;;3.97;;
69856;SDS011;57147;53.582;10.112;2024-02-21T09:27:46;12.85;;;4.68;;
69856;SDS011;57147;53.582;10.112;2024-02-21T09:32:46;11.82;;;4.75;;
69856;SDS011;57147;53.582;10.112;2024-02-21T09:37:47;12.32;;;4.72;;
69856;SDS011;57147;53.582;10.112;2024-02-21T09:42:47;8.90;;;4.97;;
69856;SDS011;57147;53.582;10.112;2024-02-21T09:53:21;6.65;;;4.80;;
69856;SDS011;57147;53.582;10.112;2024-02-21T09:58:24;7.03;;;3.85;;
69856;SDS011;57147;53.582;10.112;2024-02-21T10:03:26;10.88;;;5.80;;
69856;SDS011;57147;53.582;10.112;2024-02-21T10:08:26;7.80;;;4.93;;
69856;SDS011;57147;53.582;10.112;2024-02-21T10:13:27;9.52;;;5.78;;
69856;SDS011;57147;53.582;10.112;2024-02-21T10:18:29;9.70;;;4.68;;
69856;SDS011;57147;53.582;10.112;2024-02-21T10:23:29;8.52;;;5.65;;
69856;SDS011;57147;53.582;10.112;2024-02-21T10:28:40;5.70;;;4.75;;
69856;SDS011;57147;53.582;10.112;2024-02-21T10:33:40;6.47;;;5.60;;
69856;SDS011;57147;53.582;10.112;2024-02-21T10:38:41;8.45;;;5.90;;
69856;SDS011;57147;53.582;10.112;2024-02-21T10:43:41;9.52;;;7.63;;
69856;SDS011;57147;53.582;10.112;2024-02-21T10:48:47;16.90;;;12.45;;
69856;SDS011;57147;53.582;10.112;2024-02-21T10:59:26;16.20;;;9.30;;
69856;SDS011;57147;53.582;10.112;2024-02-21T11:04:27;19.35;;;12.48;;
69856;SDS011;57147;53.582;10.112;2024-02-21T11:09:31;19.77;;;13.27;;
69856;SDS011;57147;53.582;10.112;2024-02-21T11:14:33;19.58;;;12.77;;
69856;SDS011;57147;53.582;10.112;2024-02-21T11:19:34;19.73;;;12.07;;
69856;SDS011;57147;53.582;10.112;2024-02-21T11:24:34;18.27;;;12.82;;
69856;SDS011;57147;53.582;10.112;2024-02-21T11:29:39;18.40;;;11.27;;
69856;SDS011;57147;53.582;10.112;2024-02-21T11:34:53;19.05;;;11.38;;
69856;SDS011;57147;53.582;10.112;2024-02-21T11:39:57;22.75;;;12.95;;
69856;SDS011;57147;53.582;10.112;2024-02-21T11:44:59;19.38;;;11.68;;
69856;SDS011;57147;53.582;10.112;2024-02-21T11:49:59;16.95;;;10.45;;
69856;SDS011;57147;53.582;10.112;2024-02-21T11:55:00;15.73;;;10.23;;
69856;SDS011;57147;53.582;10.112;2024-02-21T12:00:09;13.02;;;9.80;;
69856;SDS011;57147;53.582;10.112;2024-02-21T12:10:12;16.67;;;9.32;;
69856;SDS011;57147;53.582;10.112;2024-02-21T12:15:13;14.38;;;9.30;;
69856;SDS011;57147;53.582;10.112;2024-02-21T12:20:14;15.82;;;9.80;;
69856;SDS011;57147;53.582;10.112;2024-02-21T12:25:18;15.23;;;10.23;;
69856;SDS011;57147;53.582;10.112;2024-02-21T12:30:22;13.88;;;9.35;;
69856;SDS011;57147;53.582;10.112;2024-02-21T12:35:22;13.73;;;9.45;;
69856;SDS011;57147;53.582;10.112;2024-02-21T12:40:22;16.05;;;10.05;;
69856;SDS011;57147;53.582;10.112;2024-02-21T12:45:22;14.30;;;9.30;;
69856;SDS011;57147;53.582;10.112;2024-02-21T12:50:23;14.15;;;9.80;;
69856;SDS011;57147;53.582;10.112;2024-02-21T12:55:23;16.13;;;9.75;;
69856;SDS011;57147;53.582;10.112;2024-02-21T13:00:23;17.60;;;10.13;;
69856;SDS011;57147;53.582;10.112;2024-02-21T13:05:24;22.27;;;12.05;;
69856;SDS011;57147;53.582;10.112;2024-02-21T13:10:24;17.58;;;11.88;;
69856;SDS011;57147;53.582;10.112;2024-02-21T13:15:25;15.32;;;11.32;;
69856;SDS011;57147;53.582;10.112;2024-02-21T13:20:25;19.67;;;12.23;;
69856;SDS011;57147;53.582;10.112;2024-02-21T13:25:26;17.48;;;12.57;;
69856;SDS011;57147;53.582;10.112;2024-02-21T13:30:26;15.70;;;10.60;;
69856;SDS011;57147;53.582;10.112;2024-02-21T13:35:26;16.85;;;10.55;;
69856;SDS011;57147;53.582;10.112;2024-02-21T13:40:26;18.60;;;10.63;;
69856;SDS011;57147;53.582;10.112;2024-02-21T13:45:27;16.67;;;11.02;;
69856;SDS011;57147;53.582;10.112;2024-02-21T13:50:29;16.05;;;10.45;;
69856;SDS011;57147;53.582;10.112;2024-02-21T13:55:31;16.55;;;11.90;;
69856;SDS011;57147;53.582;10.112;2024-02-21T14:00:31;17.95;;;11.10;;
69856;SDS011;57147;53.582;10.112;2024-02-21T14:05:31;15.32;;;10.45;;
69856;SDS011;57147;53.582;10.112;2024-02-21T14:10:31;12.97;;;7.87;;
69856;SDS011;57147;53.582;10.112;2024-02-21T14:15:32;16.63;;;11.82;;
69856;SDS011;57147;53.582;10.112;2024-02-21T14:20:32;15.93;;;10.45;;
69856;SDS011;57147;53.582;10.112;2024-02-21T14:25:32;12.93;;;8.90;;
69856;SDS011;57147;53.582;10.112;2024-02-21T14:30:36;15.63;;;10.77;;
69856;SDS011;57147;53.582;10.112;2024-02-21T14:35:36;15.53;;;10.70;;
69856;SDS011;57147;53.582;10.112;2024-02-21T14:40:36;14.27;;;10.55;;
69856;SDS011;57147;53.582;10.112;2024-02-21T14:45:37;15.75;;;9.95;;
69856;SDS011;57147;53.582;10.112;2024-02-21T14:50:37;16.17;;;11.90;;
69856;SDS011;57147;53.582;10.112;2024-02-21T14:55:37;12.77;;;8.93;;
69856;SDS011;57147;53.582;10.112;2024-02-21T15:00:38;15.07;;;9.90;;
69856;SDS011;57147;53.582;10.112;2024-02-21T15:05:38;13.15;;;10.48;;
69856;SDS011;57147;53.582;10.112;2024-02-21T15:10:38;14.33;;;9.00;;
69856;SDS011;57147;53.582;10.112;2024-02-21T15:15:38;11.88;;;9.30;;
69856;SDS011;57147;53.582;10.112;2024-02-21T15:20:39;11.32;;;9.70;;
69856;SDS011;57147;53.582;10.112;2024-02-21T15:25:39;14.20;;;9.47;;
69856;SDS011;57147;53.582;10.112;2024-02-21T15:30:39;17.45;;;11.35;;
69856;SDS011;57147;53.582;10.112;2024-02-21T15:35:41;11.85;;;8.55;;
69856;SDS011;57147;53.582;10.112;2024-02-21T15:40:41;9.90;;;8.38;;
69856;SDS011;57147;53.582;10.112;2024-02-21T15:45:41;10.45;;;7.80;;
69856;SDS011;57147;53.582;10.112;2024-02-21T15:50:42;10.57;;;7.77;;
69856;SDS011;57147;53.582;10.112;2024-02-21T15:55:42;8.35;;;6.95;;
69856;SDS011;57147;53.582;10.112;2024-02-21T16:00:42;8.18;;;6.32;;
69856;SDS011;57147;53.582;10.112;2024-02-21T16:05:42;8.93;;;6.80;;
69856;SDS011;57147;53.582;10.112;2024-02-21T16:10:43;9.05;;;7.35;;
69856;SDS011;57147;53.582;10.112;2024-02-21T16:15:43;9.02;;;6.03;;
69856;SDS011;57147;53.582;10.112;2024-02-21T16:20:44;8.77;;;6.53;;
69856;SDS011;57147;53.582;10.112;2024-02-21T16:25:45;7.85;;;6.32;;
69856;SDS011;57147;53.582;10.112;2024-02-21T16:30:45;7.00;;;6.10;;
69856;SDS011;57147;53.582;10.112;2024-02-21T16:35:45;11.73;;;10.35;;
69856;SDS011;57147;53.582;10.112;2024-02-21T16:40:46;7.73;;;4.73;;
69856;SDS011;57147;53.582;10.112;2024-02-21T16:45:46;5.53;;;4.93;;
69856;SDS011;57147;53.582;10.112;2024-02-21T16:50:46;7.63;;;5.60;;
69856;SDS011;57147;53.582;10.112;2024-02-21T16:55:46;8.02;;;6.05;;
69856;SDS011;57147;53.582;10.112;2024-02-21T17:00:47;8.65;;;6.75;;
69856;SDS011;57147;53.582;10.112;2024-02-21T17:05:47;6.10;;;5.50;;
69856;SDS011;57147;53.582;10.112;2024-02-21T17:10:47;7.47;;;6.68;;
69856;SDS011;57147;53.582;10.112;2024-02-21T17:15:51;9.10;;;6.15;;
69856;SDS011;57147;53.582;10.112;2024-02-21T17:20:51;7.85;;;5.32;;
69856;SDS011;57147;53.582;10.112;2024-02-21T17:25:51;6.70;;;5.43;;
69856;SDS011;57147;53.582;10.112;2024-02-21T17:30:52;9.10;;;6.38;;
69856;SDS011;57147;53.582;10.112;2024-02-21T17:35:52;8.52;;;6.13;;
69856;SDS011;57147;53.582;10.112;2024-02-21T17:40:52;8.70;;;7.03;;
69856;SDS011;57147;53.582;10.112;2024-02-21T17:45:53;10.03;;;7.20;;
69856;SDS011;57147;53.582;10.112;2024-02-21T17:50:53;13.10;;;7.38;;
69856;SDS011;57147;53.582;10.112;2024-02-21T17:55:54;8.43;;;7.07;;
69856;SDS011;57147;53.582;10.112;2024-02-21T18:00:55;8.95;;;6.55;;
69856;SDS011;57147;53.582;10.112;2024-02-21T18:05:59;10.63;;;6.78;;
69856;SDS011;57147;53.582;10.112;2024-02-21T18:11:00;13.10;;;9.13;;
69856;SDS011;57147;53.582;10.112;2024-02-21T18:16:04;12.32;;;7.75;;
69856;SDS011;57147;53.582;10.112;2024-02-21T18:21:06;11.52;;;8.50;;
69856;SDS011;57147;53.582;10.112;2024-02-21T18:26:07;9.55;;;6.85;;
69856;SDS011;57147;53.582;10.112;2024-02-21T18:31:07;10.57;;;7.20;;
69856;SDS011;57147;53.582;10.112;2024-02-21T18:36:07;9.90;;;7.13;;
69856;SDS011;57147;53.582;10.112;2024-02-21T18:41:08;10.38;;;6.40;;
69856;SDS011;57147;53.582;10.112;2024-02-21T18:46:08;9.33;;;6.83;;
69856;SDS011;57147;53.582;10.112;2024-02-21T18:51:08;10.77;;;6.40;;
69856;SDS011;57147;53.582;10.112;2024-02-21T18:56:09;7.50;;;6.68;;
69856;SDS011;57147;53.582;10.112;2024-02-21T19:01:09;8.00;;;6.10;;
69856;SDS011;57147;53.582;10.112;2024-02-21T19:06:09;11.73;;;6.47;;
69856;SDS011;57147;53.582;10.112;2024-02-21T19:11:09;7.57;;;6.50;;
69856;SDS011;57147;53.582;10.112;2024-02-21T19:16:11;8.90;;;5.43;;
69856;SDS011;57147;53.582;10.112;2024-02-21T19:21:12;11.40;;;6.50;;
69856;SDS011;57147;53.582;10.112;2024-02-21T19:26:12;8.83;;;6.87;;
69856;SDS011;57147;53.582;10.112;2024-02-21T19:31:12;7.22;;;5.55;;
69856;SDS011;57147;53.582;10.112;2024-02-21T19:36:13;9.80;;;6.97;;
69856;SDS011;57147;53.582;10.112;2024-02-21T19:41:14;6.22;;;3.67;;
69856;SDS011;57147;53.582;10.112;2024-02-21T19:46:15;7.22;;;3.05;;
69856;SDS011;57147;53.582;10.112;2024-02-21T19:51:15;9.07;;;6.40;;
69856;SDS011;57147;53.582;10.112;2024-02-21T19:56:15;7.75;;;4.55;;
69856;SDS011;57147;53.582;10.112;2024-02-21T20:01:16;7.32;;;4.70;;
69856;SDS011;57147;53.582;10.112;2024-02-21T20:06:16;6.33;;;4.60;;
69856;SDS011;57147;53.582;10.112;2024-02-21T20:11:18;7.93;;;4.53;;
69856;SDS011;57147;53.582;10.112;2024-02-21T20:16:18;8.00;;;5.53;;
69856;SDS011;57147;53.582;10.112;2024-02-21T20:21:18;8.50;;;5.13;;
69856;SDS011;57147;53.582;10.112;2024-02-21T20:26:19;7.37;;;5.10;;
69856;SDS011;57147;53.582;10.112;2024-02-21T20:31:19;8.48;;;6.03;;
69856;SDS011;57147;53.582;10.112;2024-02-21T20:36:19;5.47;;;3.88;;
69856;SDS011;57147;53.582;10.112;2024-02-21T20:41:19;10.30;;;6.30;;
69856;SDS011;57147;53.582;10.112;2024-02-21T20:46:20;4.80;;;4.20;;
69856;SDS011;57147;53.582;10.112;2024-02-21T20:51:20;8.73;;;5.72;;
69856;SDS011;57147;53.582;10.112;2024-02-21T20:56:21;8.63;;;4.40;;
69856;SDS011;57147;53.582;10.112;2024-02-21T21:01:21;10.27;;;6.47;;
69856;SDS011;57147;53.582;10.112;2024-02-21T21:06:21;7.40;;;4.63;;
69856;SDS011;57147;53.582;10.112;2024-02-21T21:11:22;5.77;;;4.13;;
69856;SDS011;57147;53.582;10.112;2024-02-21T21:16:22;8.55;;;4.32;;
69856;SDS011;57147;53.582;10.112;2024-02-21T21:21:22;7.60;;;5.32;;
69856;SDS011;57147;53.582;10.112;2024-02-21T21:26:23;6.75;;;3.95;;
69856;SDS011;57147;53.582;10.112;2024-02-21T21:31:24;6.27;;;3.50;;
69856;SDS011;57147;53.582;10.112;2024-02-21T21:36:24;6.95;;;4.75;;
69856;SDS011;57147;53.582;10.112;2024-02-21T21:41:24;8.70;;;5.03;;
69856;SDS011;57147;53.582;10.112;2024-02-21T21:46:25;6.18;;;4.53;;
69856;SDS011;57147;53.582;10.112;2024-02-21T21:51:25;5.78;;;4.45;;
69856;SDS011;57147;53.582;10.112;2024-02-21T21:56:25;8.43;;;5.47;;
69856;SDS011;57147;53.582;10.112;2024-02-21T22:01:26;7.93;;;5.03;;
69856;SDS011;57147;53.582;10.112;2024-02-21T22:06:26;7.28;;;5.95;;
69856;SDS011;57147;53.582;10.112;2024-02-21T22:11:27;8.45;;;4.97;;
69856;SDS011;57147;53.582;10.112;2024-02-21T22:16:27;12.48;;;7.57;;
69856;SDS011;57147;53.582;10.112;2024-02-21T22:21:27;7.30;;;3.13;;
69856;SDS011;57147;53.582;10.112;2024-02-21T22:26:28;5.97;;;4.85;;
69856;SDS011;57147;53.582;10.112;2024-02-21T22:31:29;7.45;;;4.57;;
69856;SDS011;57147;53.582;10.112;2024-02-21T22:36:29;9.20;;;3.90;;
69856;SDS011;57147;53.582;10.112;2024-02-21T22:41:29;7.32;;;4.25;;
69856;SDS011;57147;53.582;10.112;2024-02-21T22:46:30;8.00;;;5.13;;
69856;SDS011;57147;53.582;10.112;2024-02-21T22:51:30;9.27;;;6.63;;
69856;SDS011;57147;53.582;10.112;2024-02-21T22:56:30;7.82;;;5.50;;
69856;SDS011;57147;53.582;10.112;2024-02-21T23:01:33;7.82;;;4.22;;
69856;SDS011;57147;53.582;10.112;2024-02-21T23:06:33;6.90;;;5.00;;
69856;SDS011;57147;53.582;10.112;2024-02-21T23:11:34;5.80;;;2.58;;
69856;SDS011;57147;53.582;10.112;2024-02-21T23:16:34;8.15;;;5.18;;
69856;SDS011;57147;53.582;10.112;2024-02-21T23:21:35;7.68;;;5.05;;
69856;SDS011;57147;53.582;10.112;2024-02-21T23:26:35;5.50;;;4.30;;
69856;SDS011;57147;53.582;10.112;2024-02-21T23:31:37;7.77;;;4.40;;
69856;SDS011;57147;53.582;10.112;2024-02-21T23:36:38;10.10;;;5.25;;
69856;SDS011;57147;53.582;10.112;2024-02-21T23:41:38;8.75;;;5.47;;
69856;SDS011;57147;53.582;10.112;2024-02-21T23:46:38;8.60;;;6.10;;
69856;SDS011;57147;53.582;10.112;2024-02-21T23:51:39;5.18;;;4.68;;
69856;SDS011;57147;53.582;10.112;2024-02-21T23:56:41;6.78;;;4.40;;
